sensor_id;sensor_type;location;lat;lon;timestamp;P1;durP1;ratioP1;P2;durP2;ratioP2
20236;SDS011;10277;54.386;18.596;2022-10-23T00:03:13;19.87;;;11.40;;
20236;SDS011;10277;54.386;18.596;2022-10-23T00:08:16;19.90;;;11.77;;
20236;SDS011;10277;54.386;18.596;2022-10-23T00:13:18;18.30;;;10.97;;
20236;SDS011;10277;54.386;18.596;2022-10-23T00:18:21;17.87;;;10.73;;
20236;SDS011;10277;54.386;18.596;2022-10-23T00:23:24;22.53;;;11.03;;
20236;SDS011;10277;54.386;18.596;2022-10-23T00:28:26;19.77;;;11.20;;
20236;SDS011;10277;54.386;18.596;2022-10-23T00:33:29;23.13;;;12.30;;
20236;SDS011;10277;54.386;18.596;2022-10-23T00:38:33;22.57;;;11.87;;
20236;SDS011;10277;54.386;18.596;2022-10-23T00:43:53;18.87;;;10.70;;
20236;SDS011;10277;54.386;18.596;2022-10-23T00:48:56;20.80;;;11.33;;
20236;SDS011;10277;54.386;18.596;2022-10-23T00:53:59;18.50;;;11.27;;
20236;SDS011;10277;54.386;18.596;2022-10-23T00:59:22;20.63;;;11.73;;
20236;SDS011;10277;54.386;18.596;2022-10-23T01:04:24;24.13;;;12.80;;
20236;SDS011;10277;54.386;18.596;2022-10-23T01:09:30;22.23;;;11.53;;
20236;SDS011;10277;54.386;18.596;2022-10-23T01:20:13;25.33;;;13.07;;
20236;SDS011;10277;54.386;18.596;2022-10-23T07:27:30;40.60;;;21.67;;
20236;SDS011;10277;54.386;18.596;2022-10-23T07:32:36;38.65;;;25.90;;
20236;SDS011;10277;54.386;18.596;2022-10-23T07:37:41;40.42;;;27.88;;
20236;SDS011;10277;54.386;18.596;2022-10-23T07:42:47;35.37;;;22.77;;
20236;SDS011;10277;54.386;18.596;2022-10-23T07:47:51;64.90;;;48.07;;
20236;SDS011;10277;54.386;18.596;2022-10-23T07:52:59;35.80;;;24.97;;
20236;SDS011;10277;54.386;18.596;2022-10-23T07:58:12;34.30;;;21.70;;
20236;SDS011;10277;54.386;18.596;2022-10-23T08:03:19;29.50;;;19.97;;
20236;SDS011;10277;54.386;18.596;2022-10-23T08:08:23;32.47;;;22.43;;
20236;SDS011;10277;54.386;18.596;2022-10-23T08:13:29;33.10;;;20.73;;
20236;SDS011;10277;54.386;18.596;2022-10-23T08:18:38;29.73;;;18.70;;
20236;SDS011;10277;54.386;18.596;2022-10-23T08:23:44;30.00;;;20.70;;
20236;SDS011;10277;54.386;18.596;2022-10-23T08:28:47;29.57;;;20.87;;
20236;SDS011;10277;54.386;18.596;2022-10-23T08:33:50;30.83;;;20.70;;
20236;SDS011;10277;54.386;18.596;2022-10-23T08:38:54;26.40;;;18.00;;
20236;SDS011;10277;54.386;18.596;2022-10-23T08:54:37;18.60;;;13.03;;
20236;SDS011;10277;54.386;18.596;2022-10-23T08:59:46;14.87;;;11.90;;
20236;SDS011;10277;54.386;18.596;2022-10-23T09:04:50;15.90;;;10.97;;
20236;SDS011;10277;54.386;18.596;2022-10-23T09:09:56;12.10;;;9.67;;
20236;SDS011;10277;54.386;18.596;2022-10-23T09:25:18;11.43;;;8.57;;
20236;SDS011;10277;54.386;18.596;2022-10-23T09:30:32;10.83;;;7.40;;
20236;SDS011;10277;54.386;18.596;2022-10-23T09:35:36;10.27;;;6.73;;
20236;SDS011;10277;54.386;18.596;2022-10-23T09:40:41;8.23;;;5.50;;
20236;SDS011;10277;54.386;18.596;2022-10-23T09:45:54;6.33;;;5.47;;
20236;SDS011;10277;54.386;18.596;2022-10-23T09:56:01;9.23;;;5.10;;
20236;SDS011;10277;54.386;18.596;2022-10-23T10:01:04;7.63;;;4.70;;
20236;SDS011;10277;54.386;18.596;2022-10-23T10:06:25;6.53;;;4.97;;
20236;SDS011;10277;54.386;18.596;2022-10-23T10:11:36;7.37;;;4.23;;
20236;SDS011;10277;54.386;18.596;2022-10-23T10:59:30;7.53;;;6.00;;
20236;SDS011;10277;54.386;18.596;2022-10-23T11:04:34;4.80;;;4.30;;
20236;SDS011;10277;54.386;18.596;2022-10-23T11:09:38;13.00;;;11.70;;
20236;SDS011;10277;54.386;18.596;2022-10-23T11:14:42;4.53;;;3.47;;
20236;SDS011;10277;54.386;18.596;2022-10-23T11:19:48;7.23;;;3.30;;
20236;SDS011;10277;54.386;18.596;2022-10-23T11:40:32;7.40;;;2.87;;
20236;SDS011;10277;54.386;18.596;2022-10-23T11:45:36;5.40;;;3.67;;
20236;SDS011;10277;54.386;18.596;2022-10-23T12:01:18;6.03;;;3.30;;
20236;SDS011;10277;54.386;18.596;2022-10-23T12:06:29;7.43;;;3.40;;
20236;SDS011;10277;54.386;18.596;2022-10-23T12:11:41;4.30;;;2.70;;
20236;SDS011;10277;54.386;18.596;2022-10-23T12:16:44;4.90;;;2.87;;
20236;SDS011;10277;54.386;18.596;2022-10-23T12:21:49;6.93;;;2.50;;
20236;SDS011;10277;54.386;18.596;2022-10-23T12:26:54;6.47;;;2.97;;
20236;SDS011;10277;54.386;18.596;2022-10-23T12:42:18;5.13;;;2.90;;
20236;SDS011;10277;54.386;18.596;2022-10-23T12:47:22;6.37;;;3.60;;
20236;SDS011;10277;54.386;18.596;2022-10-23T12:52:25;3.00;;;2.67;;
20236;SDS011;10277;54.386;18.596;2022-10-23T12:57:28;4.27;;;2.70;;
20236;SDS011;10277;54.386;18.596;2022-10-23T13:02:33;5.23;;;2.77;;
20236;SDS011;10277;54.386;18.596;2022-10-23T13:07:41;5.47;;;2.60;;
20236;SDS011;10277;54.386;18.596;2022-10-23T13:12:57;5.67;;;2.80;;
20236;SDS011;10277;54.386;18.596;2022-10-23T13:18:02;5.30;;;3.10;;
20236;SDS011;10277;54.386;18.596;2022-10-23T13:33:29;4.33;;;2.50;;
20236;SDS011;10277;54.386;18.596;2022-10-23T13:38:35;8.03;;;3.13;;
20236;SDS011;10277;54.386;18.596;2022-10-23T13:43:40;6.50;;;2.40;;
20236;SDS011;10277;54.386;18.596;2022-10-23T13:48:43;4.00;;;2.40;;
20236;SDS011;10277;54.386;18.596;2022-10-23T13:53:46;6.60;;;2.80;;
20236;SDS011;10277;54.386;18.596;2022-10-23T13:58:49;3.97;;;2.37;;
20236;SDS011;10277;54.386;18.596;2022-10-23T14:03:54;7.22;;;3.40;;
20236;SDS011;10277;54.386;18.596;2022-10-23T14:08:57;4.63;;;2.60;;
20236;SDS011;10277;54.386;18.596;2022-10-23T14:14:00;5.63;;;2.70;;
20236;SDS011;10277;54.386;18.596;2022-10-23T14:19:03;4.00;;;2.23;;
20236;SDS011;10277;54.386;18.596;2022-10-23T14:24:07;9.43;;;6.40;;
20236;SDS011;10277;54.386;18.596;2022-10-23T14:29:10;4.40;;;2.57;;
20236;SDS011;10277;54.386;18.596;2022-10-23T14:44:29;4.72;;;2.70;;
20236;SDS011;10277;54.386;18.596;2022-10-23T14:49:32;5.40;;;2.78;;
20236;SDS011;10277;54.386;18.596;2022-10-23T14:54:37;6.53;;;2.93;;
20236;SDS011;10277;54.386;18.596;2022-10-23T14:59:40;10.27;;;4.63;;
20236;SDS011;10277;54.386;18.596;2022-10-23T15:04:42;9.52;;;3.90;;
20236;SDS011;10277;54.386;18.596;2022-10-23T15:09:45;10.05;;;5.47;;
20236;SDS011;10277;54.386;18.596;2022-10-23T15:14:47;12.80;;;9.57;;
20236;SDS011;10277;54.386;18.596;2022-10-23T15:19:51;8.88;;;4.80;;
20236;SDS011;10277;54.386;18.596;2022-10-23T15:24:53;10.30;;;5.43;;
20236;SDS011;10277;54.386;18.596;2022-10-23T15:55:10;13.80;;;8.13;;
20236;SDS011;10277;54.386;18.596;2022-10-23T16:00:14;17.42;;;10.93;;
20236;SDS011;10277;54.386;18.596;2022-10-23T16:05:21;15.10;;;10.00;;
20236;SDS011;10277;54.386;18.596;2022-10-23T16:10:24;16.30;;;11.73;;
20236;SDS011;10277;54.386;18.596;2022-10-23T16:15:27;15.88;;;11.73;;
20236;SDS011;10277;54.386;18.596;2022-10-23T16:20:30;15.93;;;12.13;;
20236;SDS011;10277;54.386;18.596;2022-10-23T16:25:36;15.13;;;11.40;;
20236;SDS011;10277;54.386;18.596;2022-10-23T16:30:39;16.55;;;11.23;;
20236;SDS011;10277;54.386;18.596;2022-10-23T16:35:43;17.98;;;13.80;;
20236;SDS011;10277;54.386;18.596;2022-10-23T16:40:52;21.70;;;14.85;;
20236;SDS011;10277;54.386;18.596;2022-10-23T16:46:18;26.00;;;16.70;;
20236;SDS011;10277;54.386;18.596;2022-10-23T16:51:24;30.67;;;20.30;;
20236;SDS011;10277;54.386;18.596;2022-10-23T16:56:27;22.83;;;15.27;;
20236;SDS011;10277;54.386;18.596;2022-10-23T17:01:30;22.35;;;16.75;;
20236;SDS011;10277;54.386;18.596;2022-10-23T17:06:34;23.40;;;15.50;;
20236;SDS011;10277;54.386;18.596;2022-10-23T17:11:38;19.73;;;14.73;;
20236;SDS011;10277;54.386;18.596;2022-10-23T17:16:42;18.42;;;13.85;;
20236;SDS011;10277;54.386;18.596;2022-10-23T17:21:46;19.63;;;15.07;;
20236;SDS011;10277;54.386;18.596;2022-10-23T17:26:49;19.63;;;14.90;;
20236;SDS011;10277;54.386;18.596;2022-10-23T17:31:52;18.13;;;13.57;;
20236;SDS011;10277;54.386;18.596;2022-10-23T17:36:55;23.42;;;18.88;;
20236;SDS011;10277;54.386;18.596;2022-10-23T17:41:57;24.75;;;17.60;;
20236;SDS011;10277;54.386;18.596;2022-10-23T17:47:00;27.65;;;19.27;;
20236;SDS011;10277;54.386;18.596;2022-10-23T17:52:03;28.65;;;20.25;;
20236;SDS011;10277;54.386;18.596;2022-10-23T17:57:05;28.13;;;20.83;;
20236;SDS011;10277;54.386;18.596;2022-10-23T18:02:09;30.20;;;20.33;;
20236;SDS011;10277;54.386;18.596;2022-10-23T18:07:14;27.77;;;20.80;;
20236;SDS011;10277;54.386;18.596;2022-10-23T18:12:17;30.65;;;22.58;;
20236;SDS011;10277;54.386;18.596;2022-10-23T18:17:19;43.75;;;32.60;;
20236;SDS011;10277;54.386;18.596;2022-10-23T18:22:23;49.20;;;43.95;;
20236;SDS011;10277;54.386;18.596;2022-10-23T18:27:26;35.55;;;26.58;;
20236;SDS011;10277;54.386;18.596;2022-10-23T18:32:28;55.65;;;39.78;;
20236;SDS011;10277;54.386;18.596;2022-10-23T18:37:31;38.10;;;29.13;;
20236;SDS011;10277;54.386;18.596;2022-10-23T18:42:40;34.27;;;20.77;;
20236;SDS011;10277;54.386;18.596;2022-10-23T18:47:43;33.13;;;23.08;;
20236;SDS011;10277;54.386;18.596;2022-10-23T18:52:46;36.67;;;22.75;;
20236;SDS011;10277;54.386;18.596;2022-10-23T18:57:49;40.75;;;27.65;;
20236;SDS011;10277;54.386;18.596;2022-10-23T19:02:51;70.77;;;52.57;;
20236;SDS011;10277;54.386;18.596;2022-10-23T19:07:54;41.57;;;30.27;;
20236;SDS011;10277;54.386;18.596;2022-10-23T19:12:57;34.70;;;24.02;;
20236;SDS011;10277;54.386;18.596;2022-10-23T19:18:00;28.75;;;20.83;;
20236;SDS011;10277;54.386;18.596;2022-10-23T19:23:03;29.50;;;21.48;;
20236;SDS011;10277;54.386;18.596;2022-10-23T19:28:07;27.40;;;19.30;;
20236;SDS011;10277;54.386;18.596;2022-10-23T19:33:10;31.93;;;22.13;;
20236;SDS011;10277;54.386;18.596;2022-10-23T19:38:12;29.93;;;22.20;;
20236;SDS011;10277;54.386;18.596;2022-10-23T19:43:15;30.10;;;22.27;;
20236;SDS011;10277;54.386;18.596;2022-10-23T19:48:18;30.37;;;23.70;;
20236;SDS011;10277;54.386;18.596;2022-10-23T19:53:20;31.33;;;22.87;;
20236;SDS011;10277;54.386;18.596;2022-10-23T19:58:24;35.33;;;24.40;;
20236;SDS011;10277;54.386;18.596;2022-10-23T20:03:27;35.60;;;24.58;;
20236;SDS011;10277;54.386;18.596;2022-10-23T20:08:30;36.63;;;25.25;;
20236;SDS011;10277;54.386;18.596;2022-10-23T20:13:37;35.17;;;25.87;;
20236;SDS011;10277;54.386;18.596;2022-10-23T20:18:43;45.45;;;35.03;;
20236;SDS011;10277;54.386;18.596;2022-10-23T20:23:46;32.92;;;24.60;;
20236;SDS011;10277;54.386;18.596;2022-10-23T20:28:51;37.13;;;30.10;;
20236;SDS011;10277;54.386;18.596;2022-10-23T20:33:54;31.50;;;23.80;;
20236;SDS011;10277;54.386;18.596;2022-10-23T20:38:58;33.05;;;23.00;;
20236;SDS011;10277;54.386;18.596;2022-10-23T20:44:03;30.50;;;22.92;;
20236;SDS011;10277;54.386;18.596;2022-10-23T20:49:07;33.20;;;21.13;;
20236;SDS011;10277;54.386;18.596;2022-10-23T20:54:10;28.13;;;20.63;;
20236;SDS011;10277;54.386;18.596;2022-10-23T20:59:15;28.00;;;20.65;;
20236;SDS011;10277;54.386;18.596;2022-10-23T21:04:18;29.42;;;21.52;;
20236;SDS011;10277;54.386;18.596;2022-10-23T21:09:21;29.58;;;21.65;;
20236;SDS011;10277;54.386;18.596;2022-10-23T21:14:24;28.20;;;21.40;;
20236;SDS011;10277;54.386;18.596;2022-10-23T21:19:27;33.83;;;23.20;;
20236;SDS011;10277;54.386;18.596;2022-10-23T21:24:32;39.50;;;27.15;;
20236;SDS011;10277;54.386;18.596;2022-10-23T21:29:35;37.10;;;26.65;;
20236;SDS011;10277;54.386;18.596;2022-10-23T21:34:38;28.67;;;22.37;;
20236;SDS011;10277;54.386;18.596;2022-10-23T21:39:41;30.93;;;22.73;;
20236;SDS011;10277;54.386;18.596;2022-10-23T21:44:44;27.48;;;21.20;;
20236;SDS011;10277;54.386;18.596;2022-10-23T21:49:46;26.80;;;21.52;;
20236;SDS011;10277;54.386;18.596;2022-10-23T21:54:52;31.25;;;22.15;;
20236;SDS011;10277;54.386;18.596;2022-10-23T21:59:55;28.30;;;21.40;;
20236;SDS011;10277;54.386;18.596;2022-10-23T22:04:58;29.70;;;21.48;;
20236;SDS011;10277;54.386;18.596;2022-10-23T22:10:01;26.48;;;21.10;;
20236;SDS011;10277;54.386;18.596;2022-10-23T22:15:04;28.37;;;18.87;;
20236;SDS011;10277;54.386;18.596;2022-10-23T22:20:07;29.27;;;17.97;;
20236;SDS011;10277;54.386;18.596;2022-10-23T22:25:09;32.27;;;18.43;;
20236;SDS011;10277;54.386;18.596;2022-10-23T22:30:12;29.50;;;18.03;;
20236;SDS011;10277;54.386;18.596;2022-10-23T22:35:14;26.37;;;18.80;;
20236;SDS011;10277;54.386;18.596;2022-10-23T22:40:17;32.10;;;20.87;;
20236;SDS011;10277;54.386;18.596;2022-10-23T22:45:20;29.03;;;21.93;;
20236;SDS011;10277;54.386;18.596;2022-10-23T22:50:22;26.83;;;20.85;;
20236;SDS011;10277;54.386;18.596;2022-10-23T22:55:25;26.47;;;20.63;;
20236;SDS011;10277;54.386;18.596;2022-10-23T23:00:27;26.70;;;20.17;;
20236;SDS011;10277;54.386;18.596;2022-10-23T23:05:30;41.43;;;25.90;;
20236;SDS011;10277;54.386;18.596;2022-10-23T23:10:33;44.47;;;26.53;;
20236;SDS011;10277;54.386;18.596;2022-10-23T23:15:38;47.33;;;26.63;;
20236;SDS011;10277;54.386;18.596;2022-10-23T23:20:42;45.80;;;26.00;;
20236;SDS011;10277;54.386;18.596;2022-10-23T23:25:46;50.70;;;26.77;;
20236;SDS011;10277;54.386;18.596;2022-10-23T23:30:49;52.15;;;27.25;;
20236;SDS011;10277;54.386;18.596;2022-10-23T23:36:10;41.60;;;25.25;;
20236;SDS011;10277;54.386;18.596;2022-10-23T23:41:13;38.63;;;24.17;;
20236;SDS011;10277;54.386;18.596;2022-10-23T23:46:16;36.63;;;25.07;;
20236;SDS011;10277;54.386;18.596;2022-10-23T23:51:20;33.67;;;25.23;;
20236;SDS011;10277;54.386;18.596;2022-10-23T23:56:23;36.88;;;24.85;;
